Weather at Camarillo Airport

Public forecast

Using degrees Fahrenheit for public forecast. Weather courtesy of forecast.io.

Current aviation weather report (METAR) for Camarillo Airport

Retrieved 2020/11/28 03:55 UTC (21 minutes ago):

KCMA 280355Z 04017G24KT 10SM -RA CLR 20/M14 A3016 RMK AO2 PK WND 06026/0345 RAB50 SLP222 P0000 T02001144

Aviation forecast (TAF) for Camarillo Airport

Retrieved 2020-11-28 00:38 UTC (4 hours ago):

TAF KCMA 272338Z 2800/2824 06015KT P6SM SKC FM280300 06005KT P6SM SKC FM281200 06012KT P6SM SKC FM281900 VRB03KT P6SM SKC FM282300 24006KT P6SM SKC